Time;durP1;ratioP1;P1;durP2;ratioP2;P2;SDS_P1;SDS_P2;PMS_P1;PMS_P2;Temp;Humidity;BMP_temperature;BMP_pressure;BME280_temperature;BME280_humidity;BME280_pressure;Samples;Min_cycle;Max_cycle;Signal;HPM_P1;HPM_P2
2022/10/17 00:00:57;;;;;;;0.90;0.90;;;;;;;;;;5053955;28;20288;-85
2022/10/17 00:03:24;;;;;;;0.90;0.90;;;;;;;;;;5054026;28;20292;-85
2022/10/17 00:05:52;;;;;;;1.08;1.05;;;;;;;;;;5052928;28;20701;-85
2022/10/17 00:08:20;;;;;;;1.30;1.20;;;;;;;;;;5054344;28;20228;-83
2022/10/17 00:10:56;;;;;;;0.80;0.80;;;;;;;;;;5055691;28;20215;-83
2022/10/17 00:13:24;;;;;;;5.07;1.00;;;;;;;;;;5055744;28;20652;-84
2022/10/17 00:15:53;;;;;;;4.20;1.23;;;;;;;;;;5054978;28;20657;-83
2022/10/17 00:18:20;;;;;;;0.80;0.80;;;;;;;;;;5055486;28;20316;-83
2022/10/17 00:20:48;;;;;;;0.95;0.95;;;;;;;;;;5055815;28;20208;-83
2022/10/17 00:23:15;;;;;;;2.38;1.23;;;;;;;;;;5055722;28;20218;-83
2022/10/17 00:25:43;;;;;;;0.80;0.80;;;;;;;;;;5054886;28;20232;-83
2022/10/17 00:28:11;;;;;;;1.02;1.02;;;;;;;;;;5054854;28;20288;-83
2022/10/17 00:30:39;;;;;;;0.98;0.98;;;;;;;;;;5055626;28;20289;-84
2022/10/17 00:33:08;;;;;;;0.63;0.63;;;;;;;;;;5055161;28;20225;-83
2022/10/17 00:35:35;;;;;;;0.90;0.90;;;;;;;;;;5054463;28;20316;-83
2022/10/17 00:38:03;;;;;;;1.35;1.27;;;;;;;;;;5054069;28;20288;-83
2022/10/17 00:40:30;;;;;;;1.05;1.05;;;;;;;;;;5054434;28;20225;-83
2022/10/17 00:42:57;;;;;;;1.20;1.10;;;;;;;;;;5054459;28;20309;-83
2022/10/17 00:45:26;;;;;;;1.13;0.82;;;;;;;;;;5053724;28;20308;-84
2022/10/17 00:47:58;;;;;;;1.10;1.10;;;;;;;;;;5055537;28;20202;-84
2022/10/17 00:50:27;;;;;;;1.20;1.20;;;;;;;;;;5054432;28;20208;-83
2022/10/17 00:52:56;;;;;;;1.00;1.00;;;;;;;;;;5054801;28;20265;-84
2022/10/17 00:55:28;;;;;;;1.00;1.00;;;;;;;;;;5054929;28;20304;-83
2022/10/17 00:57:56;;;;;;;1.20;1.10;;;;;;;;;;5054484;28;20638;-83
2022/10/17 01:00:25;;;;;;;1.00;1.00;;;;;;;;;;5054825;28;20208;-84
2022/10/17 01:02:53;;;;;;;0.82;0.82;;;;;;;;;;5057115;28;20231;-84
2022/10/17 01:05:21;;;;;;;2.15;1.10;;;;;;;;;;5057439;28;20651;-83
2022/10/17 01:07:51;;;;;;;0.88;0.88;;;;;;;;;;5058260;28;20204;-83
2022/10/17 01:10:19;;;;;;;0.93;0.93;;;;;;;;;;5057673;28;20296;-83
2022/10/17 01:13:00;;;;;;;0.88;0.88;;;;;;;;;;5057267;28;20575;-83
2022/10/17 01:15:39;;;;;;;1.13;1.02;;;;;;;;;;5057220;28;20227;-83
2022/10/17 01:18:17;;;;;;;1.02;1.02;;;;;;;;;;5057286;28;20284;-83
2022/10/17 01:21:37;;;;;;;1.05;1.00;;;;;;;;;;5057676;28;20209;-84
2022/10/17 01:24:33;;;;;;;1.15;1.05;;;;;;;;;;5056524;28;20601;-82
2022/10/17 01:27:29;;;;;;;2.35;1.17;;;;;;;;;;5057631;28;20201;-84
2022/10/17 01:30:23;;;;;;;1.20;1.10;;;;;;;;;;5057138;28;20202;-83
2022/10/17 01:32:54;;;;;;;1.10;1.10;;;;;;;;;;5056511;28;20220;-84
2022/10/17 01:35:25;;;;;;;1.42;1.33;;;;;;;;;;5056379;28;20231;-85
2022/10/17 01:37:59;;;;;;;4.45;1.42;;;;;;;;;;5055885;28;20197;-83
2022/10/17 01:40:31;;;;;;;1.10;1.10;;;;;;;;;;5056872;28;20220;-83
2022/10/17 01:43:02;;;;;;;1.63;1.52;;;;;;;;;;5056425;28;20221;-84
2022/10/17 01:45:33;;;;;;;1.00;1.00;;;;;;;;;;5056761;28;20304;-84
2022/10/17 01:48:07;;;;;;;1.10;0.93;;;;;;;;;;5056275;28;20212;-81
2022/10/17 01:50:39;;;;;;;0.73;0.73;;;;;;;;;;5056181;28;20211;-84
2022/10/17 01:53:12;;;;;;;1.15;1.05;;;;;;;;;;5055252;28;20208;-83
2022/10/17 01:55:43;;;;;;;1.73;1.23;;;;;;;;;;5056261;28;20673;-83
2022/10/17 01:58:13;;;;;;;1.20;1.20;;;;;;;;;;5055655;28;20202;-86
2022/10/17 02:00:42;;;;;;;1.10;1.10;;;;;;;;;;5055833;28;20761;-82
2022/10/17 02:03:15;;;;;;;2.08;1.10;;;;;;;;;;5055571;28;20321;-82
2022/10/17 02:05:43;;;;;;;1.42;1.33;;;;;;;;;;5054499;28;20311;-84
2022/10/17 02:08:11;;;;;;;0.90;0.90;;;;;;;;;;5055467;28;20194;-84
2022/10/17 02:10:43;;;;;;;1.00;1.00;;;;;;;;;;5055123;28;20575;-83
2022/10/17 02:13:19;;;;;;;1.45;1.35;;;;;;;;;;5054435;28;20221;-85
2022/10/17 02:16:05;;;;;;;0.90;0.90;;;;;;;;;;5055058;28;20217;-84
2022/10/17 02:18:53;;;;;;;1.20;1.10;;;;;;;;;;5055012;28;20212;-83
2022/10/17 02:21:27;;;;;;;2.55;1.40;;;;;;;;;;5054895;28;20208;-85
2022/10/17 02:24:00;;;;;;;1.52;1.35;;;;;;;;;;5054521;28;20222;-84
2022/10/17 02:26:33;;;;;;;2.00;1.13;;;;;;;;;;5054810;28;20212;-83
2022/10/17 02:29:06;;;;;;;1.40;1.30;;;;;;;;;;5054436;28;20209;-83
2022/10/17 02:31:39;;;;;;;1.42;1.33;;;;;;;;;;5054944;28;20208;-82
2022/10/17 02:34:12;;;;;;;1.52;1.40;;;;;;;;;;5055103;28;20212;-85
2022/10/17 02:36:45;;;;;;;1.50;1.25;;;;;;;;;;5054891;28;20299;-83
2022/10/17 02:39:13;;;;;;;1.42;1.33;;;;;;;;;;5054765;28;20213;-84
2022/10/17 02:41:41;;;;;;;3.63;1.38;;;;;;;;;;5054886;28;20292;-83
2022/10/17 02:44:09;;;;;;;1.83;1.45;;;;;;;;;;5055017;28;20233;-86
2022/10/17 02:46:39;;;;;;;1.33;1.23;;;;;;;;;;5054015;28;20263;-85
2022/10/17 02:49:12;;;;;;;1.63;1.52;;;;;;;;;;5053360;28;20583;-83
2022/10/17 02:51:45;;;;;;;2.00;1.80;;;;;;;;;;5053590;28;20735;-83
2022/10/17 02:54:17;;;;;;;1.33;1.23;;;;;;;;;;5053586;28;20594;-83
2022/10/17 02:56:50;;;;;;;1.02;1.02;;;;;;;;;;5053136;28;20194;-82
2022/10/17 02:59:21;;;;;;;2.13;1.20;;;;;;;;;;5053092;28;20206;-86
2022/10/17 03:01:50;;;;;;;1.35;1.30;;;;;;;;;;5052647;28;20215;-82
2022/10/17 03:04:20;;;;;;;1.60;1.50;;;;;;;;;;5054194;28;20230;-84
2022/10/17 03:06:49;;;;;;;1.92;1.70;;;;;;;;;;5053290;28;20562;-83
2022/10/17 03:09:17;;;;;;;1.05;1.00;;;;;;;;;;5053577;28;20209;-84
2022/10/17 03:11:44;;;;;;;2.10;1.92;;;;;;;;;;5053742;28;20292;-83
2022/10/17 03:14:12;;;;;;;1.60;1.50;;;;;;;;;;5053866;28;20289;-84
2022/10/17 03:16:39;;;;;;;1.98;1.33;;;;;;;;;;5052995;28;20590;-83
2022/10/17 03:19:06;;;;;;;1.42;1.35;;;;;;;;;;5052895;28;20280;-83
2022/10/17 03:21:36;;;;;;;1.00;1.00;;;;;;;;;;5054313;28;20300;-83
2022/10/17 03:24:05;;;;;;;1.40;1.30;;;;;;;;;;5051910;28;20217;-83
2022/10/17 03:26:32;;;;;;;1.50;1.40;;;;;;;;;;5052848;28;20202;-84
2022/10/17 03:29:00;;;;;;;2.22;2.05;;;;;;;;;;5053107;28;20206;-83
2022/10/17 03:31:27;;;;;;;1.80;1.70;;;;;;;;;;5052533;28;20284;-82
2022/10/17 03:33:55;;;;;;;1.45;1.40;;;;;;;;;;5052200;28;20285;-83
2022/10/17 03:36:22;;;;;;;1.58;1.20;;;;;;;;;;5052992;28;20296;-83
2022/10/17 03:38:54;;;;;;;1.80;1.70;;;;;;;;;;5051934;28;20296;-83
2022/10/17 03:41:21;;;;;;;1.40;1.30;;;;;;;;;;5052654;28;20201;-82
2022/10/17 03:43:49;;;;;;;2.72;1.40;;;;;;;;;;5053125;28;20292;-83
2022/10/17 03:46:16;;;;;;;1.73;1.60;;;;;;;;;;5052550;28;20749;-83
2022/10/17 03:48:44;;;;;;;1.58;1.48;;;;;;;;;;5052471;28;20202;-83
2022/10/17 03:51:11;;;;;;;1.30;1.20;;;;;;;;;;5052080;28;20220;-84
2022/10/17 03:53:39;;;;;;;1.25;1.25;;;;;;;;;;5052581;28;20201;-84
2022/10/17 03:56:13;;;;;;;1.38;1.27;;;;;;;;;;5052660;28;20717;-83
2022/10/17 03:58:41;;;;;;;1.77;1.30;;;;;;;;;;5053136;28;20201;-83
2022/10/17 04:01:11;;;;;;;2.83;2.35;;;;;;;;;;5052769;28;20602;-83
2022/10/17 04:03:40;;;;;;;1.60;1.50;;;;;;;;;;5052336;28;20221;-84
2022/10/17 04:06:08;;;;;;;1.73;1.40;;;;;;;;;;5052370;28;20218;-83
2022/10/17 04:08:36;;;;;;;1.45;1.33;;;;;;;;;;5053251;28;20288;-83
2022/10/17 04:11:05;;;;;;;1.58;1.42;;;;;;;;;;5053853;28;20269;-84
2022/10/17 04:13:35;;;;;;;2.30;1.80;;;;;;;;;;5053217;28;20665;-83
2022/10/17 04:16:06;;;;;;;4.22;1.70;;;;;;;;;;5052463;28;20225;-83
2022/10/17 04:18:34;;;;;;;2.60;1.80;;;;;;;;;;5052060;28;20194;-85
2022/10/17 04:21:02;;;;;;;2.45;1.90;;;;;;;;;;5051803;28;20205;-83
2022/10/17 04:23:29;;;;;;;2.42;1.83;;;;;;;;;;5051946;28;20209;-84
2022/10/17 04:25:57;;;;;;;1.60;1.50;;;;;;;;;;5052061;28;20713;-83
2022/10/17 04:28:25;;;;;;;2.15;1.80;;;;;;;;;;5051647;28;20296;-84
2022/10/17 04:30:58;;;;;;;1.80;1.70;;;;;;;;;;5051877;28;20205;-84
2022/10/17 04:33:26;;;;;;;2.90;1.98;;;;;;;;;;5052392;28;20205;-83
2022/10/17 04:35:58;;;;;;;2.67;1.85;;;;;;;;;;5053858;28;20218;-83
2022/10/17 04:38:26;;;;;;;2.08;1.85;;;;;;;;;;5055713;28;20690;-83
2022/10/17 04:40:53;;;;;;;2.30;1.80;;;;;;;;;;5055461;28;20201;-84
2022/10/17 04:43:21;;;;;;;1.88;1.77;;;;;;;;;;5055643;28;20475;-84
2022/10/17 04:45:48;;;;;;;1.75;1.65;;;;;;;;;;5056274;28;20251;-84
2022/10/17 04:48:17;;;;;;;2.13;2.03;;;;;;;;;;5060145;28;20232;-83
2022/10/17 04:50:54;;;;;;;3.05;2.25;;;;;;;;;;5055896;28;20284;-85
2022/10/17 04:53:21;;;;;;;2.47;1.70;;;;;;;;;;5055469;28;20205;-82
2022/10/17 04:55:49;;;;;;;1.55;1.45;;;;;;;;;;5055359;28;20221;-87
2022/10/17 04:58:17;;;;;;;2.35;2.05;;;;;;;;;;5055366;28;20208;-83
2022/10/17 05:00:44;;;;;;;1.98;1.55;;;;;;;;;;5056795;28;20207;-85
2022/10/17 05:03:12;;;;;;;2.60;1.67;;;;;;;;;;5055392;28;20665;-84
2022/10/17 05:05:42;;;;;;;2.13;1.98;;;;;;;;;;5055501;28;20234;-83
2022/10/17 05:08:11;;;;;;;2.28;2.08;;;;;;;;;;5054922;28;20202;-86
2022/10/17 05:10:39;;;;;;;1.60;1.50;;;;;;;;;;5054978;28;20296;-83
2022/10/17 05:13:07;;;;;;;2.88;1.90;;;;;;;;;;5054875;28;20229;-84
2022/10/17 05:15:35;;;;;;;2.65;2.45;;;;;;;;;;5054939;28;20217;-85
2022/10/17 05:18:02;;;;;;;2.00;1.70;;;;;;;;;;5054855;28;20587;-88
2022/10/17 05:20:30;;;;;;;2.47;1.50;;;;;;;;;;5054813;28;20211;-83
2022/10/17 05:23:01;;;;;;;2.65;1.50;;;;;;;;;;5055282;28;20586;-83
2022/10/17 05:25:28;;;;;;;1.92;1.40;;;;;;;;;;5055055;28;20236;-85
2022/10/17 05:27:55;;;;;;;3.45;2.92;;;;;;;;;;5054605;28;20748;-83
2022/10/17 05:30:23;;;;;;;2.78;2.15;;;;;;;;;;5054851;28;20228;-83
2022/10/17 05:32:54;;;;;;;1.83;1.73;;;;;;;;;;5054742;28;20655;-85
2022/10/17 05:35:22;;;;;;;2.83;1.40;;;;;;;;;;5054938;28;20229;-83
2022/10/17 05:37:49;;;;;;;1.70;1.60;;;;;;;;;;5054450;28;20692;-84
2022/10/17 05:40:18;;;;;;;2.65;1.65;;;;;;;;;;5054404;28;20205;-84
2022/10/17 05:42:49;;;;;;;2.55;1.60;;;;;;;;;;5054110;28;20288;-84
2022/10/17 05:45:17;;;;;;;1.50;1.40;;;;;;;;;;5054202;28;20608;-83
2022/10/17 05:47:45;;;;;;;1.70;1.60;;;;;;;;;;5053564;28;20194;-85
2022/10/17 05:50:12;;;;;;;2.33;1.85;;;;;;;;;;5053962;28;20209;-85
2022/10/17 05:52:39;;;;;;;2.78;1.70;;;;;;;;;;5054213;28;20288;-84
2022/10/17 05:55:08;;;;;;;1.67;1.58;;;;;;;;;;5054071;28;20586;-84
2022/10/17 05:57:37;;;;;;;1.98;1.85;;;;;;;;;;5054207;28;20202;-84
2022/10/17 06:00:06;;;;;;;2.28;1.60;;;;;;;;;;5054311;28;20202;-84
2022/10/17 06:02:34;;;;;;;1.80;1.35;;;;;;;;;;5055079;28;20209;-84
2022/10/17 06:05:01;;;;;;;2.20;1.60;;;;;;;;;;5054305;28;20236;-84
2022/10/17 06:07:29;;;;;;;2.30;1.50;;;;;;;;;;5053922;28;20288;-84
2022/10/17 06:09:57;;;;;;;1.70;1.60;;;;;;;;;;5053451;28;20740;-84
2022/10/17 06:12:25;;;;;;;5.35;1.63;;;;;;;;;;5053835;28;20584;-84
2022/10/17 06:14:54;;;;;;;1.98;1.80;;;;;;;;;;5053674;28;20323;-84
2022/10/17 06:17:21;;;;;;;3.03;1.80;;;;;;;;;;5053951;28;20233;-83
2022/10/17 06:19:49;;;;;;;1.85;1.75;;;;;;;;;;5053577;28;20228;-84
2022/10/17 06:22:16;;;;;;;1.65;1.55;;;;;;;;;;5055042;28;20293;-85
2022/10/17 06:24:44;;;;;;;1.80;1.70;;;;;;;;;;5054120;28;20228;-84
2022/10/17 06:27:11;;;;;;;1.67;1.58;;;;;;;;;;5053585;28;20204;-83
2022/10/17 06:29:39;;;;;;;1.60;1.50;;;;;;;;;;5053648;28;20288;-83
2022/10/17 06:32:08;;;;;;;2.30;1.55;;;;;;;;;;5053648;28;20292;-84
2022/10/17 06:34:35;;;;;;;2.28;2.03;;;;;;;;;;5053266;28;20313;-84
2022/10/17 06:37:03;;;;;;;2.30;1.58;;;;;;;;;;5053586;28;20296;-83
2022/10/17 06:39:32;;;;;;;3.80;1.70;;;;;;;;;;5053098;28;20202;-84
2022/10/17 06:42:00;;;;;;;2.13;2.00;;;;;;;;;;5053790;28;20604;-84
2022/10/17 06:44:30;;;;;;;2.95;1.77;;;;;;;;;;5053291;28;20596;-84
2022/10/17 06:46:58;;;;;;;3.13;1.60;;;;;;;;;;5053300;28;20228;-84
2022/10/17 06:49:27;;;;;;;3.60;1.92;;;;;;;;;;5052790;28;20198;-84
2022/10/17 06:51:54;;;;;;;1.55;1.45;;;;;;;;;;5053321;28;20232;-83
2022/10/17 06:54:22;;;;;;;2.90;1.30;;;;;;;;;;5053216;28;20317;-84
2022/10/17 06:56:49;;;;;;;2.35;1.70;;;;;;;;;;5052799;28;20204;-83
2022/10/17 06:59:17;;;;;;;1.80;1.70;;;;;;;;;;5052632;28;20661;-83
2022/10/17 07:01:44;;;;;;;5.75;2.00;;;;;;;;;;5052895;28;20207;-85
2022/10/17 07:04:12;;;;;;;1.70;1.60;;;;;;;;;;5053092;28;20231;-83
2022/10/17 07:06:40;;;;;;;2.03;1.75;;;;;;;;;;5052754;28;20724;-84
2022/10/17 07:09:09;;;;;;;2.35;1.60;;;;;;;;;;5055000;28;20292;-83
2022/10/17 07:11:36;;;;;;;2.97;2.08;;;;;;;;;;5055003;28;20247;-86
2022/10/17 07:14:04;;;;;;;2.05;1.63;;;;;;;;;;5055236;28;20267;-84
2022/10/17 07:16:32;;;;;;;1.92;1.73;;;;;;;;;;5054964;28;20316;-83
2022/10/17 07:18:59;;;;;;;1.90;1.60;;;;;;;;;;5054928;28;20205;-83
2022/10/17 07:21:26;;;;;;;3.17;1.77;;;;;;;;;;5054681;28;20697;-84
2022/10/17 07:23:55;;;;;;;1.90;1.70;;;;;;;;;;5053513;28;20288;-85
2022/10/17 07:26:23;;;;;;;1.80;1.70;;;;;;;;;;5054890;28;20285;-83
2022/10/17 07:28:54;;;;;;;2.45;2.00;;;;;;;;;;5053098;28;20716;-84
2022/10/17 07:31:22;;;;;;;2.55;1.48;;;;;;;;;;5054198;28;20297;-85
2022/10/17 07:33:50;;;;;;;1.73;1.35;;;;;;;;;;5055487;28;20208;-86
2022/10/17 07:36:18;;;;;;;1.60;1.50;;;;;;;;;;5054344;28;20205;-84
2022/10/17 07:38:46;;;;;;;1.85;1.65;;;;;;;;;;5053901;28;20687;-83
2022/10/17 07:41:14;;;;;;;1.50;1.40;;;;;;;;;;5053407;28;20228;-84
2022/10/17 07:43:42;;;;;;;2.40;2.20;;;;;;;;;;5053659;28;20284;-85
2022/10/17 07:46:10;;;;;;;2.53;1.80;;;;;;;;;;5054038;28;20225;-84
2022/10/17 07:48:39;;;;;;;1.90;1.80;;;;;;;;;;5054198;28;20194;-84
2022/10/17 07:51:09;;;;;;;2.13;1.77;;;;;;;;;;5053322;28;20208;-84
2022/10/17 07:53:37;;;;;;;2.22;2.00;;;;;;;;;;5053407;28;20206;-84
2022/10/17 07:56:06;;;;;;;4.80;2.13;;;;;;;;;;5053694;28;20721;-85
2022/10/17 07:58:36;;;;;;;2.65;2.30;;;;;;;;;;5053519;28;20210;-83
2022/10/17 08:01:05;;;;;;;3.67;2.03;;;;;;;;;;5053671;28;20697;-84
2022/10/17 08:03:33;;;;;;;1.88;1.77;;;;;;;;;;5053767;28;20208;-83
2022/10/17 08:06:02;;;;;;;2.03;1.63;;;;;;;;;;5053353;28;20233;-84
2022/10/17 08:08:30;;;;;;;2.30;2.10;;;;;;;;;;5053254;28;20204;-84
2022/10/17 08:11:03;;;;;;;2.38;1.77;;;;;;;;;;5055985;28;20296;-84
2022/10/17 08:13:31;;;;;;;2.83;2.20;;;;;;;;;;5059062;28;20197;-84
2022/10/17 08:16:01;;;;;;;2.20;2.00;;;;;;;;;;5057584;28;20308;-83
2022/10/17 08:18:29;;;;;;;2.22;2.03;;;;;;;;;;5057766;28;20202;-85
2022/10/17 08:21:00;;;;;;;1.90;1.63;;;;;;;;;;5057330;28;20219;-83
2022/10/17 08:23:28;;;;;;;2.60;2.40;;;;;;;;;;5057142;28;20201;-84
2022/10/17 08:25:55;;;;;;;1.83;1.63;;;;;;;;;;5056886;28;20222;-84
2022/10/17 08:28:23;;;;;;;2.33;1.80;;;;;;;;;;5056347;28;20202;-84
2022/10/17 08:30:50;;;;;;;1.88;1.60;;;;;;;;;;5057070;28;20283;-84
2022/10/17 08:33:19;;;;;;;3.53;1.90;;;;;;;;;;5056732;28;20273;-85
2022/10/17 08:35:47;;;;;;;2.17;1.98;;;;;;;;;;5056405;28;20339;-83
2022/10/17 08:38:14;;;;;;;2.90;1.85;;;;;;;;;;5057354;28;20499;-84
2022/10/17 08:40:42;;;;;;;2.03;1.90;;;;;;;;;;5058083;28;20298;-84
2022/10/17 08:43:26;;;;;;;2.10;2.00;;;;;;;;;;5057597;28;20291;-84
2022/10/17 08:45:59;;;;;;;2.42;2.20;;;;;;;;;;5057832;28;20222;-85
2022/10/17 08:48:31;;;;;;;1.95;1.80;;;;;;;;;;5058640;28;20201;-85
2022/10/17 08:51:03;;;;;;;2.83;2.40;;;;;;;;;;5057841;28;20212;-83
2022/10/17 08:53:36;;;;;;;1.88;1.77;;;;;;;;;;5057481;28;20315;-86
2022/10/17 08:56:15;;;;;;;2.38;2.17;;;;;;;;;;5058444;28;20225;-84
2022/10/17 08:58:42;;;;;;;2.47;1.98;;;;;;;;;;5057417;28;20292;-84
2022/10/17 09:01:22;;;;;;;1.63;1.52;;;;;;;;;;5057445;28;20265;-84
2022/10/17 09:04:10;;;;;;;1.88;1.75;;;;;;;;;;5057791;28;20202;-84
2022/10/17 09:06:40;;;;;;;2.22;1.85;;;;;;;;;;5057098;28;20229;-83
2022/10/17 09:09:22;;;;;;;1.80;1.45;;;;;;;;;;5056821;28;20634;-84
2022/10/17 09:12:03;;;;;;;1.67;1.58;;;;;;;;;;5056321;28;20193;-85
2022/10/17 09:14:52;;;;;;;2.25;2.10;;;;;;;;;;5056519;28;20651;-85
2022/10/17 09:17:32;;;;;;;2.33;2.13;;;;;;;;;;5056764;28;20565;-84
2022/10/17 09:20:08;;;;;;;3.03;1.88;;;;;;;;;;5056421;28;20488;-85
2022/10/17 09:22:41;;;;;;;1.98;1.75;;;;;;;;;;5054217;28;20622;-85
2022/10/17 09:25:13;;;;;;;2.40;2.20;;;;;;;;;;5056347;28;20228;-85
2022/10/17 09:27:43;;;;;;;2.63;1.98;;;;;;;;;;5056753;28;20224;-85
2022/10/17 09:30:32;;;;;;;2.15;1.95;;;;;;;;;;5055983;28;20284;-85
2022/10/17 09:33:00;;;;;;;2.63;2.42;;;;;;;;;;5055902;28;20201;-84
2022/10/17 09:35:30;;;;;;;1.88;1.77;;;;;;;;;;5055760;28;20320;-84
2022/10/17 09:37:58;;;;;;;2.78;1.63;;;;;;;;;;5055922;28;20209;-85
2022/10/17 09:40:29;;;;;;;2.25;1.75;;;;;;;;;;5056229;28;20640;-85
2022/10/17 09:42:57;;;;;;;1.75;1.65;;;;;;;;;;5056779;28;20206;-84
2022/10/17 09:45:26;;;;;;;1.92;1.83;;;;;;;;;;5056142;28;20308;-84
2022/10/17 09:48:01;;;;;;;2.03;1.83;;;;;;;;;;5056659;28;20276;-84
2022/10/17 09:50:32;;;;;;;2.20;2.10;;;;;;;;;;5056153;28;20291;-84
2022/10/17 09:53:07;;;;;;;2.15;1.67;;;;;;;;;;5055506;28;20197;-83
2022/10/17 09:55:40;;;;;;;2.65;1.92;;;;;;;;;;5054610;28;20599;-83
2022/10/17 09:58:09;;;;;;;2.58;1.60;;;;;;;;;;5053657;28;20201;-83
2022/10/17 10:00:39;;;;;;;1.80;1.70;;;;;;;;;;5054573;28;20246;-84
2022/10/17 10:03:16;;;;;;;2.13;1.70;;;;;;;;;;5054248;28;20205;-85
2022/10/17 10:06:00;;;;;;;2.03;1.92;;;;;;;;;;5054193;28;20229;-86
2022/10/17 10:08:31;;;;;;;2.13;1.95;;;;;;;;;;5034026;28;20223;-84
2022/10/17 10:11:03;;;;;;;1.75;1.65;;;;;;;;;;5034139;28;20210;-85
2022/10/17 10:13:31;;;;;;;2.00;1.88;;;;;;;;;;5034285;28;20753;-85
2022/10/17 10:16:20;;;;;;;1.70;1.60;;;;;;;;;;5034171;28;20229;-84
2022/10/17 10:18:47;;;;;;;1.73;1.58;;;;;;;;;;5033233;28;20745;-84
2022/10/17 10:21:19;;;;;;;1.85;1.70;;;;;;;;;;5033886;28;20289;-84
2022/10/17 10:24:10;;;;;;;2.30;2.10;;;;;;;;;;5033941;28;20431;-86
2022/10/17 10:26:41;;;;;;;1.40;1.30;;;;;;;;;;5033710;28;20301;-85
2022/10/17 10:29:22;;;;;;;1.73;1.50;;;;;;;;;;5033475;28;20229;-85
2022/10/17 10:31:51;;;;;;;1.73;1.60;;;;;;;;;;5033824;28;20192;-85
2022/10/17 10:34:22;;;;;;;2.83;1.70;;;;;;;;;;5033060;28;20222;-85
2022/10/17 10:36:59;;;;;;;1.90;1.80;;;;;;;;;;5048590;28;20197;-85
2022/10/17 10:39:36;;;;;;;3.63;1.80;;;;;;;;;;5053079;28;20280;-85
2022/10/17 10:42:17;;;;;;;3.35;1.90;;;;;;;;;;5053616;28;20208;-86
2022/10/17 10:44:44;;;;;;;1.50;1.40;;;;;;;;;;5053599;28;20226;-85
2022/10/17 10:47:23;;;;;;;2.35;1.52;;;;;;;;;;5053435;28;20700;-85
2022/10/17 10:49:53;;;;;;;1.70;1.60;;;;;;;;;;5053158;28;20566;-84
2022/10/17 10:52:32;;;;;;;3.60;2.60;;;;;;;;;;5053198;28;20204;-86
2022/10/17 10:55:10;;;;;;;2.50;1.90;;;;;;;;;;5053535;28;20217;-86
2022/10/17 10:57:37;;;;;;;3.22;2.20;;;;;;;;;;5053612;28;20201;-85
2022/10/17 11:00:12;;;;;;;2.13;1.75;;;;;;;;;;5053740;28;20293;-85
2022/10/17 11:02:48;;;;;;;3.25;1.70;;;;;;;;;;5053809;28;20673;-85
2022/10/17 11:05:22;;;;;;;3.20;1.90;;;;;;;;;;5053432;28;20325;-85
2022/10/17 11:07:58;;;;;;;2.95;2.00;;;;;;;;;;5053436;28;20317;-85
2022/10/17 11:10:31;;;;;;;2.33;1.75;;;;;;;;;;5053230;28;20205;-86
2022/10/17 11:13:03;;;;;;;2.90;1.88;;;;;;;;;;5053474;28;20213;-85
2022/10/17 11:15:36;;;;;;;2.45;1.85;;;;;;;;;;5053346;28;20705;-84
2022/10/17 11:18:06;;;;;;;3.15;1.60;;;;;;;;;;5052724;28;20201;-84
2022/10/17 11:20:42;;;;;;;2.70;2.10;;;;;;;;;;5052802;28;20292;-85
2022/10/17 11:23:20;;;;;;;2.15;1.98;;;;;;;;;;5052799;28;20205;-86
2022/10/17 11:25:50;;;;;;;2.42;2.05;;;;;;;;;;5053009;28;20609;-85
2022/10/17 11:28:20;;;;;;;2.30;1.95;;;;;;;;;;5053020;28;20261;-85
2022/10/17 11:30:51;;;;;;;2.53;1.65;;;;;;;;;;5053919;28;20212;-84
2022/10/17 11:33:27;;;;;;;4.45;2.03;;;;;;;;;;5053187;28;20202;-85
2022/10/17 11:35:59;;;;;;;1.80;1.70;;;;;;;;;;5052669;28;20308;-84
2022/10/17 11:38:41;;;;;;;2.67;1.75;;;;;;;;;;5052930;28;20296;-84
2022/10/17 11:41:14;;;;;;;2.15;1.45;;;;;;;;;;5053041;28;20285;-84
2022/10/17 11:43:45;;;;;;;1.35;1.33;;;;;;;;;;5052657;28;20255;-85
2022/10/17 11:46:17;;;;;;;1.80;1.58;;;;;;;;;;5051598;28;20221;-84
2022/10/17 11:48:58;;;;;;;2.28;1.40;;;;;;;;;;5052519;28;20645;-85
2022/10/17 11:51:26;;;;;;;1.58;1.45;;;;;;;;;;5052909;28;20228;-85
2022/10/17 11:54:01;;;;;;;1.58;1.48;;;;;;;;;;5052396;28;20201;-86
2022/10/17 11:56:37;;;;;;;4.63;2.63;;;;;;;;;;5052698;28;20209;-86
2022/10/17 11:59:31;;;;;;;2.17;1.63;;;;;;;;;;5052312;28;20680;-87
2022/10/17 12:02:03;;;;;;;3.78;1.83;;;;;;;;;;5052277;28;20216;-84
2022/10/17 12:04:45;;;;;;;1.70;1.60;;;;;;;;;;5051962;28;20224;-85
2022/10/17 12:07:20;;;;;;;1.33;1.23;;;;;;;;;;5055243;28;20210;-85
2022/10/17 12:09:55;;;;;;;1.52;1.40;;;;;;;;;;5051360;28;20221;-84
2022/10/17 12:12:27;;;;;;;5.07;1.50;;;;;;;;;;5051926;28;20295;-85
2022/10/17 12:14:58;;;;;;;1.70;1.60;;;;;;;;;;5051750;28;20275;-85
2022/10/17 12:17:33;;;;;;;2.45;1.58;;;;;;;;;;5051643;28;20228;-85
2022/10/17 12:20:29;;;;;;;1.52;1.38;;;;;;;;;;5051758;28;20203;-85
2022/10/17 12:23:00;;;;;;;1.92;1.33;;;;;;;;;;5051941;28;20201;-85
2022/10/17 12:25:32;;;;;;;2.38;1.88;;;;;;;;;;5051838;28;20226;-85
2022/10/17 12:28:26;;;;;;;1.58;1.48;;;;;;;;;;5051693;28;20202;-84
2022/10/17 12:30:58;;;;;;;2.70;1.70;;;;;;;;;;5050187;28;20201;-85
2022/10/17 12:33:33;;;;;;;2.55;1.48;;;;;;;;;;5051707;28;20305;-85
2022/10/17 12:36:38;;;;;;;1.70;1.60;;;;;;;;;;5051353;28;20221;-85
2022/10/17 12:39:51;;;;;;;1.95;1.73;;;;;;;;;;5050578;28;20756;-84
2022/10/17 12:42:49;;;;;;;1.95;1.42;;;;;;;;;;5027465;28;20237;-84
2022/10/17 12:45:51;;;;;;;1.33;1.10;;;;;;;;;;5051446;28;20575;-84
2022/10/17 12:48:59;;;;;;;1.48;1.38;;;;;;;;;;5051141;28;20695;-84
2022/10/17 12:51:28;;;;;;;1.33;1.23;;;;;;;;;;5051521;28;20201;-84
2022/10/17 12:54:00;;;;;;;1.30;1.20;;;;;;;;;;5051609;28;20202;-84
2022/10/17 12:56:38;;;;;;;1.25;1.23;;;;;;;;;;5052745;28;20201;-84
2022/10/17 12:59:15;;;;;;;1.40;1.30;;;;;;;;;;5054665;28;20201;-84
2022/10/17 13:01:46;;;;;;;1.58;1.42;;;;;;;;;;5055085;28;20201;-84
2022/10/17 13:04:14;;;;;;;1.80;1.70;;;;;;;;;;5054935;28;20279;-84
2022/10/17 13:06:46;;;;;;;1.52;1.38;;;;;;;;;;5055327;28;20657;-84
2022/10/17 13:09:25;;;;;;;2.35;1.65;;;;;;;;;;5055275;28;20229;-83
2022/10/17 13:11:53;;;;;;;1.92;1.65;;;;;;;;;;5055148;28;20287;-84
2022/10/17 13:14:24;;;;;;;3.03;1.40;;;;;;;;;;5055289;28;20221;-84
2022/10/17 13:16:53;;;;;;;1.50;1.40;;;;;;;;;;5055499;28;20564;-85
2022/10/17 13:19:24;;;;;;;1.10;1.10;;;;;;;;;;5054398;28;20208;-84
2022/10/17 13:21:54;;;;;;;1.70;1.45;;;;;;;;;;5055176;28;20201;-84
2022/10/17 13:24:28;;;;;;;1.20;1.20;;;;;;;;;;5054833;28;20233;-84
2022/10/17 13:26:55;;;;;;;2.90;1.23;;;;;;;;;;5055115;28;20206;-84
2022/10/17 13:29:27;;;;;;;1.40;1.30;;;;;;;;;;5054220;28;20316;-85
2022/10/17 13:31:59;;;;;;;1.42;1.33;;;;;;;;;;5054590;28;20206;-84
2022/10/17 13:34:27;;;;;;;1.45;1.35;;;;;;;;;;5054535;28;20232;-84
2022/10/17 13:36:58;;;;;;;1.52;1.42;;;;;;;;;;5054302;28;20585;-84
2022/10/17 13:39:29;;;;;;;1.50;1.38;;;;;;;;;;5054392;28;20209;-84
2022/10/17 13:41:57;;;;;;;1.48;1.30;;;;;;;;;;5054890;28;20206;-84
2022/10/17 13:44:29;;;;;;;1.50;1.30;;;;;;;;;;5053944;28;20309;-84
2022/10/17 13:46:56;;;;;;;1.20;1.10;;;;;;;;;;5054701;28;20201;-85
2022/10/17 13:49:34;;;;;;;1.55;1.35;;;;;;;;;;5054859;28;20728;-84
2022/10/17 13:52:05;;;;;;;1.63;1.52;;;;;;;;;;5055027;28;20208;-84
2022/10/17 13:54:39;;;;;;;4.38;2.28;;;;;;;;;;5054216;28;20657;-84
2022/10/17 13:57:19;;;;;;;1.55;1.45;;;;;;;;;;5054359;28;20197;-84
2022/10/17 13:59:51;;;;;;;1.33;1.23;;;;;;;;;;5054114;28;20202;-84
2022/10/17 14:02:23;;;;;;;1.85;1.45;;;;;;;;;;5054253;28;20198;-84
2022/10/17 14:05:01;;;;;;;1.83;1.73;;;;;;;;;;5053990;28;20221;-84
2022/10/17 14:07:35;;;;;;;1.23;1.13;;;;;;;;;;5033564;28;20293;-84
2022/10/17 14:10:05;;;;;;;3.30;1.42;;;;;;;;;;5033425;28;20226;-83
2022/10/17 14:12:33;;;;;;;1.85;1.70;;;;;;;;;;5034305;28;20619;-84
2022/10/17 14:15:04;;;;;;;2.03;1.90;;;;;;;;;;5033935;28;20218;-83
2022/10/17 14:17:32;;;;;;;1.90;1.50;;;;;;;;;;5033752;28;20210;-83
2022/10/17 14:20:03;;;;;;;1.63;1.52;;;;;;;;;;5033205;28;20293;-84
2022/10/17 14:22:33;;;;;;;1.83;1.73;;;;;;;;;;5033797;28;20324;-84
2022/10/17 14:25:01;;;;;;;1.92;1.20;;;;;;;;;;5033859;28;20260;-84
2022/10/17 14:27:33;;;;;;;1.65;1.55;;;;;;;;;;5033385;28;20201;-84
2022/10/17 14:30:07;;;;;;;1.45;1.35;;;;;;;;;;5033286;28;20231;-84
2022/10/17 14:32:37;;;;;;;2.97;1.75;;;;;;;;;;5033446;28;20590;-84
2022/10/17 14:35:06;;;;;;;1.25;1.15;;;;;;;;;;5033581;28;20254;-84
2022/10/17 14:37:42;;;;;;;1.88;1.70;;;;;;;;;;5053329;28;20670;-84
2022/10/17 14:40:18;;;;;;;1.67;1.58;;;;;;;;;;5053425;28;20197;-84
2022/10/17 14:42:46;;;;;;;3.03;1.30;;;;;;;;;;5053060;28;20220;-84
2022/10/17 14:45:18;;;;;;;2.33;1.70;;;;;;;;;;5053366;28;20304;-84
2022/10/17 14:47:49;;;;;;;2.08;1.60;;;;;;;;;;5053178;28;20201;-84
2022/10/17 14:50:28;;;;;;;1.60;1.50;;;;;;;;;;5053126;28;20304;-85
2022/10/17 14:53:05;;;;;;;1.30;1.30;;;;;;;;;;5053038;28;20233;-84
2022/10/17 14:55:35;;;;;;;1.40;1.30;;;;;;;;;;5052930;28;20221;-84
2022/10/17 14:58:15;;;;;;;1.25;1.10;;;;;;;;;;5053039;28;20201;-84
2022/10/17 15:00:44;;;;;;;1.17;1.17;;;;;;;;;;5053431;28;20292;-84
2022/10/17 15:03:12;;;;;;;1.05;1.00;;;;;;;;;;5052850;28;20292;-84
2022/10/17 15:05:40;;;;;;;1.20;1.10;;;;;;;;;;5052960;28;20248;-83
2022/10/17 15:08:12;;;;;;;1.27;1.20;;;;;;;;;;5052836;28;20239;-83
2022/10/17 15:10:40;;;;;;;1.73;1.23;;;;;;;;;;5053721;28;20228;-83